createdAt,value
2023-07-25T00:20:00.381Z,1.70
2023-07-25T00:22:31.081Z,1.40
2023-07-25T00:25:17.131Z,1.50
2023-07-25T00:47:47.929Z,1.57
2023-07-25T00:50:19.222Z,1.20
2023-07-25T00:52:52.191Z,1.40
2023-07-25T00:55:42.007Z,1.37
2023-07-25T01:01:48.999Z,1.73
2023-07-25T01:22:11.911Z,1.20
2023-07-25T01:24:52.066Z,1.10
2023-07-25T01:27:20.782Z,2.13
2023-07-25T01:29:55.765Z,1.30
2023-07-25T01:32:24.450Z,1.57
2023-07-25T01:34:53.558Z,2.30
2023-07-25T01:37:28.951Z,1.60
2023-07-25T01:40:02.880Z,1.40
2023-07-25T01:45:19.730Z,1.90
2023-07-25T01:47:53.925Z,1.30
2023-07-25T01:50:22.518Z,1.07
2023-07-25T01:52:52.893Z,2.00
2023-07-25T01:55:34.953Z,2.07
2023-07-25T01:58:05.790Z,1.60
2023-07-25T02:00:49.033Z,1.67
2023-07-25T02:06:19.521Z,1.40
2023-07-25T02:15:27.730Z,1.20
2023-07-25T02:21:24.898Z,1.63
2023-07-25T02:26:43.489Z,1.63
2023-07-25T02:29:19.433Z,1.93
2023-07-25T02:31:58.026Z,1.60
2023-07-25T02:40:36.382Z,1.10
2023-07-25T02:43:06.100Z,1.60
2023-07-25T02:45:42.834Z,1.63
2023-07-25T02:51:13.534Z,1.50
2023-07-25T02:53:46.234Z,1.70
2023-07-25T02:56:27.686Z,1.80
2023-07-25T03:02:08.315Z,1.43
2023-07-25T03:07:37.181Z,1.50
2023-07-25T03:10:25.435Z,1.60
2023-07-25T03:12:54.544Z,1.40
2023-07-25T03:15:23.246Z,1.53
2023-07-25T03:18:10.469Z,1.50
2023-07-25T03:20:39.444Z,1.27
2023-07-25T03:23:11.593Z,1.73
2023-07-25T03:25:58.718Z,1.37
2023-07-25T03:31:42.536Z,1.97
2023-07-25T03:53:10.411Z,1.97
2023-07-25T03:55:46.183Z,1.40
2023-07-25T03:58:37.502Z,1.40
2023-07-25T04:01:07.261Z,1.37
2023-07-25T04:12:12.015Z,1.50
2023-07-25T04:14:44.253Z,1.20
2023-07-25T04:20:21.656Z,1.30
2023-07-25T04:22:50.250Z,1.20
2023-07-25T04:25:18.804Z,1.30
2023-07-25T04:27:48.607Z,1.30
2023-07-25T04:30:17.257Z,1.23
2023-07-25T04:32:45.834Z,1.50
2023-07-25T04:35:14.555Z,1.37
2023-07-25T04:37:43.338Z,1.50
2023-07-25T04:40:15.179Z,1.73
2023-07-25T04:42:44.213Z,1.50
2023-07-25T04:45:15.525Z,1.37
2023-07-25T04:47:47.507Z,1.57
2023-07-25T04:50:16.525Z,1.33
2023-07-25T04:52:46.357Z,1.40
2023-07-25T04:55:15.027Z,1.67
2023-07-25T04:57:43.998Z,1.40
2023-07-25T05:00:17.042Z,1.27
2023-07-25T05:02:45.607Z,1.40
2023-07-25T05:05:14.172Z,2.07
2023-07-25T05:07:43.362Z,1.33
2023-07-25T05:10:12.054Z,1.70
2023-07-25T05:12:41.683Z,1.60
2023-07-25T05:15:11.642Z,1.70
2023-07-25T05:17:42.400Z,1.50
2023-07-25T05:20:14.564Z,1.40
2023-07-25T05:22:44.460Z,1.53
2023-07-25T05:25:14.506Z,1.10
2023-07-25T05:27:45.001Z,1.33
2023-07-25T05:30:13.765Z,1.17
2023-07-25T05:32:45.326Z,1.30
2023-07-25T05:35:15.169Z,1.27
2023-07-25T05:37:44.084Z,1.20
2023-07-25T05:40:13.177Z,1.97
2023-07-25T05:42:42.863Z,1.30
2023-07-25T05:45:13.823Z,1.20
2023-07-25T05:47:52.255Z,1.27
2023-07-25T05:50:20.718Z,1.57
2023-07-25T05:52:49.497Z,1.13
2023-07-25T05:55:18.713Z,1.57
2023-07-25T05:57:47.282Z,1.60
2023-07-25T06:00:16.183Z,1.67
2023-07-25T06:02:47.987Z,1.50
2023-07-25T06:05:16.328Z,1.50
2023-07-25T06:07:45.054Z,1.70
2023-07-25T06:10:14.193Z,1.47
2023-07-25T06:12:43.859Z,1.33
2023-07-25T06:15:12.659Z,1.10
2023-07-25T06:17:41.507Z,1.43
2023-07-25T06:20:22.503Z,1.83
2023-07-25T06:22:53.331Z,1.67
2023-07-25T06:25:22.509Z,1.17
2023-07-25T06:38:00.221Z,1.50
2023-07-25T06:53:16.776Z,1.77
2023-07-25T06:56:06.277Z,1.47
2023-07-25T08:04:50.112Z,1.23
2023-07-25T08:07:22.544Z,1.20
2023-07-25T08:09:56.370Z,1.17
2023-07-25T08:12:26.268Z,1.63
2023-07-25T08:14:54.756Z,1.10
2023-07-25T08:17:40.188Z,1.17
2023-07-25T08:20:11.350Z,1.20
2023-07-25T08:22:40.010Z,1.50
2023-07-25T08:25:10.776Z,1.17
2023-07-25T08:27:39.080Z,1.10
2023-07-25T08:30:10.047Z,1.30
2023-07-25T08:32:40.323Z,1.10
2023-07-25T08:35:16.601Z,1.40
2023-07-25T08:37:45.016Z,1.23
2023-07-25T08:40:18.437Z,1.47
2023-07-25T08:42:52.789Z,1.47
2023-07-25T08:45:22.836Z,1.47
2023-07-25T08:47:54.936Z,1.20
2023-07-25T08:53:16.792Z,1.30
2023-07-25T08:55:54.784Z,1.40
2023-07-25T08:58:23.683Z,1.37
2023-07-25T09:03:49.237Z,1.70
2023-07-25T09:09:02.673Z,1.10
2023-07-25T09:15:04.636Z,1.13
2023-07-25T09:20:15.692Z,1.00
2023-07-25T09:22:49.750Z,1.40
2023-07-25T09:28:08.622Z,1.40
2023-07-25T09:31:07.659Z,1.50
2023-07-25T09:33:36.259Z,1.27
2023-07-25T09:36:09.027Z,1.20
2023-07-25T09:38:37.460Z,1.17
2023-07-25T09:41:10.989Z,1.40
2023-07-25T09:43:42.897Z,1.70
2023-07-25T09:46:12.933Z,1.50
2023-07-25T09:48:45.612Z,1.33
2023-07-25T09:51:16.427Z,1.70
2023-07-25T09:53:45.143Z,1.60
2023-07-25T09:56:14.161Z,1.37
2023-07-25T09:58:54.844Z,1.30
2023-07-25T10:01:30.878Z,1.10
2023-07-25T10:03:59.932Z,1.50
2023-07-25T10:06:31.138Z,1.20
2023-07-25T10:09:01.242Z,1.40
2023-07-25T10:11:31.207Z,1.40
2023-07-25T10:14:00.127Z,1.10
2023-07-25T10:16:31.448Z,1.13
2023-07-25T10:19:02.832Z,1.10
2023-07-25T10:21:49.242Z,1.40
2023-07-25T10:24:18.771Z,1.40
2023-07-25T10:26:58.688Z,1.43
2023-07-25T10:29:45.282Z,1.63
2023-07-25T10:32:16.601Z,1.80
2023-07-25T10:34:53.613Z,1.90
2023-07-25T10:37:30.293Z,1.60
2023-07-25T10:40:12.427Z,1.50
2023-07-25T10:43:00.069Z,1.73
2023-07-25T10:45:50.784Z,2.20
2023-07-25T10:48:56.863Z,1.60
2023-07-25T10:51:27.374Z,1.60
2023-07-25T10:54:31.123Z,2.20
2023-07-25T10:57:26.596Z,1.83
2023-07-25T11:13:42.282Z,1.90
2023-07-25T11:16:12.299Z,2.27
2023-07-25T11:18:51.965Z,1.60
2023-07-25T11:21:20.600Z,1.50
2023-07-25T11:23:51.182Z,1.93
2023-07-25T11:26:19.683Z,1.70
2023-07-25T11:28:49.401Z,1.40
2023-07-25T11:31:22.792Z,1.87
2023-07-25T11:36:27.102Z,1.50
2023-07-25T11:38:59.206Z,1.50
2023-07-25T11:41:28.111Z,1.47
2023-07-25T11:47:02.820Z,1.90
2023-07-25T11:49:55.838Z,1.50
2023-07-25T11:52:30.353Z,1.70
2023-07-25T11:55:00.460Z,1.73
2023-07-25T11:57:29.445Z,1.50
2023-07-25T12:00:01.616Z,1.63
2023-07-25T12:02:49.825Z,1.57
2023-07-25T12:05:28.582Z,1.57
2023-07-25T12:08:02.030Z,1.30
2023-07-25T12:10:34.097Z,1.40
2023-07-25T12:13:05.105Z,1.80
2023-07-25T12:15:51.381Z,1.50
2023-07-25T12:18:28.439Z,1.50
2023-07-25T12:24:22.598Z,1.57
2023-07-25T12:26:53.319Z,1.53
2023-07-25T12:29:23.972Z,1.50
2023-07-25T12:31:54.862Z,1.50
2023-07-25T12:34:25.311Z,1.50
2023-07-25T12:37:42.692Z,1.53
2023-07-25T12:40:12.540Z,1.50
2023-07-25T12:42:41.096Z,1.40
2023-07-25T12:45:11.445Z,1.30
2023-07-25T12:47:44.236Z,1.60
2023-07-25T12:53:21.753Z,1.33
2023-07-25T12:55:50.395Z,1.13
2023-07-25T12:58:24.179Z,1.23
2023-07-25T13:07:12.905Z,1.50
2023-07-25T13:12:27.577Z,1.27
2023-07-25T13:14:57.679Z,1.60
2023-07-25T13:17:26.934Z,1.20
2023-07-25T13:19:58.487Z,1.20
2023-07-25T13:22:53.212Z,1.23
2023-07-25T13:26:00.211Z,1.00
2023-07-25T13:28:28.808Z,0.97
2023-07-25T13:31:16.664Z,1.37
2023-07-25T13:34:51.181Z,1.10
2023-07-25T13:37:20.053Z,1.35
2023-07-25T13:39:52.683Z,1.05
2023-07-25T13:45:02.901Z,1.00
2023-07-25T13:50:55.343Z,1.10
2023-07-25T13:53:25.501Z,1.20
2023-07-25T13:56:44.109Z,1.08
2023-07-25T13:59:26.692Z,0.93
2023-07-25T14:01:55.297Z,1.02
2023-07-25T14:04:55.231Z,1.08
2023-07-25T14:07:25.308Z,0.95
2023-07-25T14:10:11.420Z,1.10
2023-07-25T14:15:25.722Z,1.20
2023-07-25T14:17:57.634Z,1.10
2023-07-25T14:20:26.539Z,0.90
2023-07-25T14:23:01.507Z,1.05
2023-07-25T14:25:44.839Z,1.38
2023-07-25T14:28:30.074Z,1.10
2023-07-25T14:37:57.303Z,0.90
2023-07-25T14:40:46.116Z,0.90
2023-07-25T14:43:14.762Z,1.00
2023-07-25T14:45:44.433Z,0.93
2023-07-25T14:48:13.368Z,1.38
2023-07-25T14:50:45.173Z,0.88
2023-07-25T14:53:31.628Z,1.10
2023-07-25T14:56:00.111Z,0.90
2023-07-25T14:58:48.245Z,1.10
2023-07-25T15:04:00.365Z,0.90
2023-07-25T15:07:03.338Z,0.95
2023-07-25T15:09:32.246Z,0.90
2023-07-25T15:12:03.330Z,1.00
2023-07-25T15:14:32.117Z,0.63
2023-07-25T15:17:06.356Z,0.98
2023-07-25T15:19:49.009Z,1.73
2023-07-25T15:22:25.442Z,0.80
2023-07-25T15:25:12.434Z,1.02
2023-07-25T15:27:42.825Z,1.05
2023-07-25T15:30:28.599Z,0.90
2023-07-25T15:36:03.661Z,1.00
2023-07-25T15:38:42.626Z,1.10
2023-07-25T15:41:10.920Z,0.70
2023-07-25T15:43:40.886Z,1.23
2023-07-25T15:46:10.011Z,0.65
2023-07-25T15:48:47.595Z,1.00
2023-07-25T15:51:21.293Z,0.80
2023-07-25T15:56:44.590Z,0.82
2023-07-25T15:59:15.316Z,1.13
2023-07-25T16:22:11.040Z,0.77
2023-07-25T16:42:25.292Z,0.70
2023-07-25T16:55:22.419Z,0.75
2023-07-25T16:58:45.812Z,1.13
2023-07-25T17:01:22.331Z,0.65
2023-07-25T17:16:10.575Z,0.55
2023-07-25T17:31:11.096Z,0.80
2023-07-25T17:39:06.866Z,0.68
2023-07-25T17:42:15.432Z,0.60
2023-07-25T17:50:30.776Z,0.60
2023-07-25T17:55:57.265Z,0.70
2023-07-25T17:58:25.902Z,0.57
2023-07-25T18:01:06.812Z,0.65
2023-07-25T18:09:48.633Z,0.65
2023-07-25T18:12:32.652Z,0.50
2023-07-25T18:15:00.902Z,0.65
2023-07-25T18:17:29.370Z,0.55
2023-07-25T18:19:59.463Z,0.63
2023-07-25T18:22:32.476Z,0.73
2023-07-25T18:25:00.833Z,0.43
2023-07-25T18:30:23.096Z,0.60
2023-07-25T18:32:52.660Z,0.80
2023-07-25T18:35:33.387Z,0.60
2023-07-25T18:38:04.145Z,0.65
2023-07-25T18:40:38.172Z,0.60
2023-07-25T18:43:10.982Z,1.17
2023-07-25T18:45:41.031Z,0.70
2023-07-25T18:48:15.591Z,0.80
2023-07-25T18:51:03.002Z,1.15
2023-07-25T18:53:32.616Z,1.00
2023-07-25T18:56:07.028Z,0.60
2023-07-25T19:02:16.349Z,0.52
2023-07-25T19:04:50.118Z,0.63
2023-07-25T19:07:19.768Z,0.80
2023-07-25T19:09:51.232Z,0.80
2023-07-25T19:12:32.800Z,0.93
2023-07-25T19:15:02.244Z,0.90
2023-07-25T19:17:35.150Z,0.73
2023-07-25T19:20:09.271Z,0.98
2023-07-25T19:22:57.486Z,1.00
2023-07-25T19:28:35.259Z,1.07
2023-07-25T19:31:45.500Z,0.77
2023-07-25T21:00:45.149Z,0.87
2023-07-25T21:06:06.825Z,1.20
2023-07-25T21:08:36.293Z,1.27
2023-07-25T21:11:06.204Z,0.90
2023-07-25T21:13:42.701Z,1.07
2023-07-25T21:16:35.291Z,1.20
2023-07-25T21:19:14.980Z,1.20
2023-07-25T21:25:03.179Z,1.03
2023-07-25T21:27:43.781Z,1.10
2023-07-25T21:30:46.857Z,1.27
2023-07-25T21:41:07.394Z,1.10
2023-07-25T21:47:09.590Z,1.67
2023-07-25T21:49:42.420Z,2.13
2023-07-25T21:52:13.651Z,1.63
2023-07-25T21:54:49.489Z,1.20
2023-07-25T21:57:40.326Z,1.37
2023-07-25T22:03:02.371Z,1.77
2023-07-25T22:05:31.402Z,1.33
2023-07-25T22:08:03.827Z,1.30
2023-07-25T22:10:38.101Z,1.80
2023-07-25T22:13:10.897Z,1.37
2023-07-25T22:15:43.471Z,1.33
2023-07-25T22:18:26.615Z,1.53
2023-07-25T22:20:55.203Z,1.13
2023-07-25T22:23:35.097Z,1.37
2023-07-25T22:26:06.662Z,1.50
2023-07-25T22:31:27.342Z,1.27
2023-07-25T22:37:28.808Z,1.30
2023-07-25T22:43:02.043Z,1.27
2023-07-25T22:45:37.016Z,1.60
2023-07-25T22:51:15.115Z,1.20
2023-07-25T22:53:47.192Z,1.30
2023-07-25T22:59:13.469Z,1.20
2023-07-25T23:01:42.705Z,1.43
2023-07-25T23:04:11.729Z,1.70
2023-07-25T23:06:44.074Z,1.60
2023-07-25T23:09:14.223Z,1.40
2023-07-25T23:11:43.173Z,1.43
2023-07-25T23:14:11.646Z,1.43
2023-07-25T23:16:40.378Z,1.50
2023-07-25T23:19:08.791Z,1.93
2023-07-25T23:21:38.014Z,1.63
2023-07-25T23:24:07.776Z,1.20
2023-07-25T23:26:38.212Z,1.60
2023-07-25T23:29:07.025Z,1.37
2023-07-25T23:31:35.652Z,1.43
2023-07-25T23:34:04.671Z,1.77
2023-07-25T23:36:34.285Z,1.40
2023-07-25T23:39:02.797Z,1.57
2023-07-25T23:41:31.963Z,1.20
2023-07-25T23:44:01.938Z,1.83
2023-07-25T23:46:30.619Z,1.33
2023-07-25T23:48:59.902Z,1.57
2023-07-25T23:51:28.333Z,1.57
2023-07-25T23:54:01.848Z,1.53
2023-07-25T23:56:31.896Z,1.63
2023-07-25T23:59:02.431Z,1.80
